• Join FlightAware (Why Join?)
  • Login
  • US Flag 
04:22AM EST


 

Airport Tracker/Info


-or-


 

Live Flight TrackerFlight Track Log ✈ SWA419 ✈ 29-Jul-2013 ✈ KSDF - KATL

Flight Track Log - Related Links

Times and Time Zones

All times are in EDT time to prevent confusion due to time zone crossing. See the SWA419 flight status page for this flight to view local times or setup timezone preferences in your user account.

Time Position Orientation Groundspeed Altitude Reporting Facility
EDT Latitude Longitude Course Direction KTS MPH feet Rate Location/Type
07:07AM 38.1000 -85.7167 229° Southwest 219 252 3,500  Level Louisville TRACON
07:08AM 38.0708 -85.7594 229° Southwest 259 298 5,200 2,520 Climbing Indianapolis Center
07:09AM 38.0717 -85.8497 271° West 258 297 8,300 2,940 Climbing Indianapolis Center
07:10AM 38.0106 -85.9058 216° Southwest 285 328 11,200 2,880 Climbing Indianapolis Center
07:11AM 37.9219 -85.9525 203° Southwest 334 384 14,200 3,000 Climbing Indianapolis Center
07:12AM 37.8317 -85.9967 201° Southwest 343 395 17,300 2,580 Climbing Indianapolis Center
07:13AM 37.7403 -86.0431 202° Southwest 350 403 19,500 2,160 Climbing Indianapolis Center
07:14AM 37.6436 -86.0897 201° Southwest 365 420 21,800 2,160 Climbing Indianapolis Center
07:15AM 37.5403 -86.1417 202° Southwest 384 442 24,000 1,920 Climbing Indianapolis Center
07:16AM 37.4358 -86.1944 202° Southwest 398 458 25,800 1,620 Climbing Indianapolis Center
07:17AM 37.3258 -86.2478 201° Southwest 415 478 27,400 1,680 Climbing Indianapolis Center
07:18AM 37.2097 -86.2933 197° South 438 504 29,300 1,560 Climbing Indianapolis Center
07:19AM 37.0803 -86.3008 183° South 452 520 30,700 1,500 Climbing Indianapolis Center
07:20AM 36.9514 -86.3089 183° South 466 536 32,400 1,740 Climbing Indianapolis Center
07:21AM 36.8389 -86.3128 182° South 465 535 33,800 1,380 Climbing Memphis Center
07:22AM 36.7097 -86.3194 182° South 465 535 34,900 600 Climbing Memphis Center
07:23AM 36.5767 -86.3236 181° South 475 547 35,000  Climbing Memphis Center
07:24AM 36.4414 -86.3328 183° South 480 552 35,000  Level Memphis Center
07:25AM 36.3186 -86.3389 182° South 485 558 35,000  Level Memphis Center
07:26AM 36.1833 -86.3456 182° South 485 558 35,000 -540 Level Memphis Center
07:27AM 36.0500 -86.3522 182° South 485 558 34,000 -960 Descending Memphis Center
07:28AM 35.9228 -86.3456 178° South 470 541 33,100 -420 Descending Memphis Center
07:30AM 35.7033 -86.2150 154° Southeast 458 527 33,000 -60 Descending Atlanta Center
07:31AM 35.5875 -86.1456 154° Southeast 469 540 33,000  Level Atlanta Center
07:32AM 35.4678 -86.0736 154° Southeast 469 540 33,000  Level Atlanta Center
07:33AM 35.3564 -86.0047 153° Southeast 481 554 33,000  Level Atlanta Center
07:34AM 35.2342 -85.9331 154° Southeast 486 559 33,000 -420 Level Atlanta Center
07:35AM 35.1164 -85.8619 154° Southeast 479 551 32,200 -900 Descending Atlanta Center
07:36AM 35.0050 -85.7783 148° Southeast 474 545 31,200 -1,080 Descending Atlanta Center
07:37AM 34.8936 -85.6900 147° Southeast 474 545 30,100 -1,080 Descending Atlanta Center
07:38AM 34.7839 -85.6069 148° Southeast 474 545 29,100 -1,260 Descending Atlanta Center
07:39AM 34.6764 -85.5214 147° Southeast 464 534 27,600 -1,920 Descending Atlanta Center
07:40AM 34.5731 -85.4414 147° Southeast 459 528 25,300 -1,800 Descending Atlanta Center
07:41AM 34.4739 -85.3617 146° Southeast 442 509 24,000 -1,260 Descending Atlanta Center
07:42AM 34.3725 -85.2794 146° Southeast 415 478 22,800 -2,340 Descending Atlanta Center
07:44AM 34.1839 -85.1236 146° Southeast 409 471 17,000 -2,940 Descending Atlanta Center
07:45AM 34.0950 -85.0297 139° Southeast 416 479 14,100 -1,680 Descending Atlanta Center
07:46AM 34.0225 -84.9411 135° Southeast 422 486 13,700 -780 Descending Atlanta Center
07:47AM 33.9439 -84.8400 133° Southeast 412 474 12,600 -900 Descending Atlanta Center
07:48AM 33.8667 -84.7333 131° Southeast 381 438 12,000 -300 Descending Atlanta TRACON
07:49AM 33.8000 -84.6500 134° Southeast 360 414 12,000 -180 Level Atlanta TRACON
07:50AM 33.7333 -84.5667 134° Southeast 329 379 11,700 -1,020 Descending Atlanta TRACON
07:51AM 33.7333 -84.4667 90° East 335 386 10,000 -1,680 Descending Atlanta TRACON
07:52AM 33.7333 -84.3667 90° East 321 369 8,400 -1,920 Descending Atlanta TRACON
07:53AM 33.7333 -84.2667 90° East 300 345 6,400 -1,500 Descending Atlanta TRACON
07:54AM 33.6833 -84.2000 132° Southeast 260 299 5,300 -1,260 Descending Atlanta TRACON
07:55AM 33.6500 -84.2500 231° Southwest 199 229 3,800 -1,380 Descending Atlanta TRACON
07:56AM 33.6500 -84.3167 270° West 175 201 2,600 -1,020 Descending Atlanta TRACON
07:57AM 33.6500 -84.3667 270° West 141 162 1,800 -840 Descending Atlanta TRACON
07:59AM 33.6333 -84.4167 263° West  Level FlightAware Approximate
08:06AM 33.6367 -84.4279 263° West  Level Estimated